Santa Ana, CA

2:48 PM PDT on July 30, 2015 (GMT -0700)
MesoWest | | Change Station
CLOSE
Current Station
Personal Weather Station
Location: Santa Ana, CA
Elevation: 109 ft
Nearby Weather Stations

Elev 109 ft 33.74 °N, 117.87 °W | Updated 51 minutes ago

Partly Cloudy
Partly Cloudy
85 °F
Feels Like 88 °F
N
3
Wind Variable Wind from SSE
Gusts 0.0 mph

Today
High -- | Low -- °F
--% Chance of Precip.
Yesterday
High -- | Low -- °F
Precip. -- in
6:01 AM 7:53 PM
Full, 100% visible
Pressure 29.99 in
Visibility 10.0 miles
Clouds Few 4500 ft
Scattered Clouds 15000 ft
Scattered Clouds 25000 ft
Heat Index 88 °F
Dew Point 67 °F
Humidity 55%
Rainfall in
Snow Depth Not available.
UV 9 out of 12
Pollen 2.60 out of 12
Air Quality Not available.
Flu Activity Not available.
METAR KSNA 302053Z 20010KT 10SM FEW045 SCT150 SCT250 27/18 A2999 RMK AO2 SLP153 CB DSNT NW-N AND NE-E T02720183 58007

More Conditions Fewer Conditions

Pressure 29.99 in
Visibility 10.0 miles
Clouds Few 4500 ft
Scattered Clouds 15000 ft
Scattered Clouds 25000 ft
Heat Index 88 °F
Dew Point 67 °F
Humidity 55%
Rainfall in
Snow Depth Not available.
UV 9 out of 12
Pollen 2.60 out of 12
Air Quality Not available.
Flu Activity Not available.
METAR KSNA 302053Z 20010KT 10SM FEW045 SCT150 SCT250 27/18 A2999 RMK AO2 SLP153 CB DSNT NW-N AND NE-E T02720183 58007

More Conditions Fewer Conditions

10-Day Weather Forecast

×

Almanac

Astronomy

Jul. 30, 2015 Rise Set
Actual Time
Civil Twilight
Nautical Twilight
Astronomical Twilight
Moon
Length of Visible Light
Length of Day
Tomorrow will be .
, % of the Moon is Illuminated

Today's Extremes

State Highs State Lows

Community

WunderPhotos

Upload Photos

1,842,510 photos uploaded!

WunderBlogs® & News

Nearby

Air Quality

  Air Quality AQ Index Pollutant
Not available.

Snow Depth

Station Depth Elevation

Earthquake Activity

City Distance Mag. Time & Date
Minimum magnitude displayed is 2.5.

Coastal Water Temperatures

Place Temperature

Stations

Nearby Weather Stations

Station Location Temp. Windchill Dew Point Humidity Wind Precip. Elev Updated Type